sensor_id;sensor_type;location;lat;lon;timestamp;pressure;altitude;pressure_sealevel;temperature;humidity
5883;BME280;2967;51.488;6.618;2023-02-10T00:02:32;103261.03;;;5.88;100.00
5883;BME280;2967;51.488;6.618;2023-02-10T00:07:35;103261.94;;;5.78;100.00
5883;BME280;2967;51.488;6.618;2023-02-10T00:12:37;103247.03;;;5.90;100.00
5883;BME280;2967;51.488;6.618;2023-02-10T00:17:41;103275.88;;;5.96;100.00
5883;BME280;2967;51.488;6.618;2023-02-10T00:22:44;103270.44;;;6.20;100.00
5883;BME280;2967;51.488;6.618;2023-02-10T00:27:46;103274.81;;;6.20;100.00
5883;BME280;2967;51.488;6.618;2023-02-10T00:32:50;103286.41;;;5.90;100.00
5883;BME280;2967;51.488;6.618;2023-02-10T00:37:53;103289.78;;;6.10;100.00
5883;BME280;2967;51.488;6.618;2023-02-10T00:42:56;103277.47;;;6.15;100.00
5883;BME280;2967;51.488;6.618;2023-02-10T00:48:00;103241.63;;;6.05;100.00
5883;BME280;2967;51.488;6.618;2023-02-10T00:53:02;103282.94;;;5.88;100.00
5883;BME280;2967;51.488;6.618;2023-02-10T00:58:05;103273.09;;;6.22;100.00
5883;BME280;2967;51.488;6.618;2023-02-10T01:03:09;103280.97;;;6.20;100.00
5883;BME280;2967;51.488;6.618;2023-02-10T01:08:12;103276.59;;;6.19;100.00
5883;BME280;2967;51.488;6.618;2023-02-10T01:13:15;103286.13;;;6.32;100.00
5883;BME280;2967;51.488;6.618;2023-02-10T01:18:19;103292.22;;;6.36;100.00
5883;BME280;2967;51.488;6.618;2023-02-10T01:23:22;103304.47;;;6.40;100.00
5883;BME280;2967;51.488;6.618;2023-02-10T01:28:25;103302.75;;;6.34;100.00
5883;BME280;2967;51.488;6.618;2023-02-10T01:33:29;103304.56;;;6.28;100.00
5883;BME280;2967;51.488;6.618;2023-02-10T01:38:31;103302.94;;;6.09;100.00
5883;BME280;2967;51.488;6.618;2023-02-10T01:43:58;103205.19;;;5.56;100.00
5883;BME280;2967;51.488;6.618;2023-02-10T01:49:06;103313.31;;;6.25;100.00
5883;BME280;2967;51.488;6.618;2023-02-10T01:54:13;103316.00;;;6.19;100.00
5883;BME280;2967;51.488;6.618;2023-02-10T01:59:17;103322.19;;;6.14;100.00
5883;BME280;2967;51.488;6.618;2023-02-10T02:04:23;103314.41;;;5.97;100.00
5883;BME280;2967;51.488;6.618;2023-02-10T02:09:26;103322.28;;;5.97;100.00
5883;BME280;2967;51.488;6.618;2023-02-10T02:14:33;103322.25;;;6.02;100.00
5883;BME280;2967;51.488;6.618;2023-02-10T02:20:19;103323.03;;;6.14;100.00
5883;BME280;2967;51.488;6.618;2023-02-10T02:26:04;103316.03;;;6.16;100.00
5883;BME280;2967;51.488;6.618;2023-02-10T02:31:35;103323.13;;;6.04;100.00
5883;BME280;2967;51.488;6.618;2023-02-10T02:36:43;103325.81;;;5.89;100.00
5883;BME280;2967;51.488;6.618;2023-02-10T02:42:00;103342.41;;;5.95;100.00
5883;BME280;2967;51.488;6.618;2023-02-10T02:47:19;103314.50;;;5.72;100.00
5883;BME280;2967;51.488;6.618;2023-02-10T02:52:35;103321.50;;;5.82;100.00
5883;BME280;2967;51.488;6.618;2023-02-10T02:57:46;103313.63;;;5.80;100.00
5883;BME280;2967;51.488;6.618;2023-02-10T03:02:51;103309.25;;;5.70;100.00
5883;BME280;2967;51.488;6.618;2023-02-10T03:07:55;103304.88;;;5.68;100.00
5883;BME280;2967;51.488;6.618;2023-02-10T03:12:58;103291.81;;;5.56;100.00
5883;BME280;2967;51.488;6.618;2023-02-10T03:18:02;103296.22;;;5.48;100.00
5883;BME280;2967;51.488;6.618;2023-02-10T03:23:05;103299.72;;;5.50;100.00
5883;BME280;2967;51.488;6.618;2023-02-10T03:28:07;103268.31;;;5.29;100.00
5883;BME280;2967;51.488;6.618;2023-02-10T03:33:14;103312.91;;;5.33;100.00
5883;BME280;2967;51.488;6.618;2023-02-10T03:38:17;103327.84;;;5.16;100.00
5883;BME280;2967;51.488;6.618;2023-02-10T03:43:20;103323.47;;;5.14;100.00
5883;BME280;2967;51.488;6.618;2023-02-10T03:48:24;103330.47;;;5.15;100.00
5883;BME280;2967;51.488;6.618;2023-02-10T03:53:33;103334.81;;;5.14;100.00
5883;BME280;2967;51.488;6.618;2023-02-10T03:58:36;103333.09;;;5.16;100.00
5883;BME280;2967;51.488;6.618;2023-02-10T04:03:40;103333.94;;;5.20;100.00
5883;BME280;2967;51.488;6.618;2023-02-10T04:08:43;103341.84;;;5.11;100.00
5883;BME280;2967;51.488;6.618;2023-02-10T04:13:46;103344.44;;;5.15;100.00
5883;BME280;2967;51.488;6.618;2023-02-10T04:18:50;103333.97;;;5.08;100.00
5883;BME280;2967;51.488;6.618;2023-02-10T04:23:53;103340.97;;;5.10;100.00
5883;BME280;2967;51.488;6.618;2023-02-10T04:28:57;103339.25;;;4.72;100.00
5883;BME280;2967;51.488;6.618;2023-02-10T04:34:01;103336.63;;;4.69;100.00
5883;BME280;2967;51.488;6.618;2023-02-10T04:39:03;103339.25;;;4.48;100.00
5883;BME280;2967;51.488;6.618;2023-02-10T04:44:06;103339.25;;;4.51;100.00
5883;BME280;2967;51.488;6.618;2023-02-10T04:49:10;103322.66;;;4.43;100.00
5883;BME280;2967;51.488;6.618;2023-02-10T04:54:13;103333.13;;;4.60;100.00
5883;BME280;2967;51.488;6.618;2023-02-10T04:59:15;103339.25;;;4.41;100.00
5883;BME280;2967;51.488;6.618;2023-02-10T05:04:19;103339.25;;;4.41;100.00
5883;BME280;2967;51.488;6.618;2023-02-10T05:09:23;103347.09;;;4.41;100.00
5883;BME280;2967;51.488;6.618;2023-02-10T05:14:26;103356.69;;;4.18;100.00
5883;BME280;2967;51.488;6.618;2023-02-10T05:19:30;103353.06;;;3.86;100.00
5883;BME280;2967;51.488;6.618;2023-02-10T05:24:32;103357.47;;;3.97;100.00
5883;BME280;2967;51.488;6.618;2023-02-10T05:29:35;103364.44;;;3.91;100.00
5883;BME280;2967;51.488;6.618;2023-02-10T05:34:39;103373.19;;;3.96;100.00
5883;BME280;2967;51.488;6.618;2023-02-10T05:39:42;103374.06;;;3.89;100.00
5883;BME280;2967;51.488;6.618;2023-02-10T05:44:44;103374.94;;;3.95;100.00
5883;BME280;2967;51.488;6.618;2023-02-10T05:49:48;103373.19;;;4.00;100.00
5883;BME280;2967;51.488;6.618;2023-02-10T05:54:51;103374.13;;;4.14;100.00
5883;BME280;2967;51.488;6.618;2023-02-10T05:59:54;103376.72;;;4.16;100.00
5883;BME280;2967;51.488;6.618;2023-02-10T06:04:58;103378.47;;;4.06;100.00
5883;BME280;2967;51.488;6.618;2023-02-10T06:10:00;103375.00;;;4.19;100.00
5883;BME280;2967;51.488;6.618;2023-02-10T06:15:04;103374.16;;;4.23;100.00
5883;BME280;2967;51.488;6.618;2023-02-10T06:20:09;103374.13;;;4.16;100.00
5883;BME280;2967;51.488;6.618;2023-02-10T06:25:11;103386.34;;;4.12;100.00
5883;BME280;2967;51.488;6.618;2023-02-10T06:30:15;103401.13;;;3.95;100.00
5883;BME280;2967;51.488;6.618;2023-02-10T06:35:19;103399.41;;;4.02;100.00
5883;BME280;2967;51.488;6.618;2023-02-10T06:40:21;103396.78;;;4.05;100.00
5883;BME280;2967;51.488;6.618;2023-02-10T06:45:24;103386.34;;;4.11;100.00
5883;BME280;2967;51.488;6.618;2023-02-10T06:50:28;103391.56;;;4.03;100.00
5883;BME280;2967;51.488;6.618;2023-02-10T06:55:30;103395.06;;;4.07;100.00
5883;BME280;2967;51.488;6.618;2023-02-10T07:00:33;103372.34;;;4.00;100.00
5883;BME280;2967;51.488;6.618;2023-02-10T07:05:38;103364.44;;;3.83;100.00
5883;BME280;2967;51.488;6.618;2023-02-10T07:10:42;103375.78;;;3.96;100.00
5883;BME280;2967;51.488;6.618;2023-02-10T07:15:45;103380.22;;;4.09;100.00
5883;BME280;2967;51.488;6.618;2023-02-10T07:20:50;103387.19;;;4.04;100.00
5883;BME280;2967;51.488;6.618;2023-02-10T07:25:52;103384.59;;;4.07;100.00
5883;BME280;2967;51.488;6.618;2023-02-10T07:30:55;103403.72;;;3.88;100.00
5883;BME280;2967;51.488;6.618;2023-02-10T07:36:00;103415.13;;;4.06;100.00
5883;BME280;2967;51.488;6.618;2023-02-10T07:41:04;103422.09;;;4.00;100.00
5883;BME280;2967;51.488;6.618;2023-02-10T07:46:07;103418.63;;;4.07;100.00
5883;BME280;2967;51.488;6.618;2023-02-10T07:51:11;103414.25;;;4.04;100.00
5883;BME280;2967;51.488;6.618;2023-02-10T07:56:14;103412.53;;;4.08;100.00
5883;BME280;2967;51.488;6.618;2023-02-10T08:01:17;103418.69;;;4.22;100.00
5883;BME280;2967;51.488;6.618;2023-02-10T08:06:23;103424.78;;;4.24;100.00
5883;BME280;2967;51.488;6.618;2023-02-10T08:11:27;103422.94;;;3.96;100.00
5883;BME280;2967;51.488;6.618;2023-02-10T08:16:32;103436.16;;;4.27;100.00
5883;BME280;2967;51.488;6.618;2023-02-10T08:21:36;103439.63;;;4.25;100.00
5883;BME280;2967;51.488;6.618;2023-02-10T08:26:39;103441.38;;;4.20;100.00
5883;BME280;2967;51.488;6.618;2023-02-10T08:31:43;103450.09;;;4.17;100.00
5883;BME280;2967;51.488;6.618;2023-02-10T08:36:47;103429.94;;;3.92;100.00
5883;BME280;2967;51.488;6.618;2023-02-10T08:41:50;103452.50;;;3.74;100.00
5883;BME280;2967;51.488;6.618;2023-02-10T08:46:52;103450.56;;;3.40;100.00
5883;BME280;2967;51.488;6.618;2023-02-10T08:51:56;103452.59;;;3.90;100.00
5883;BME280;2967;51.488;6.618;2023-02-10T08:56:59;103470.75;;;3.56;100.00
5883;BME280;2967;51.488;6.618;2023-02-10T09:02:02;103465.81;;;4.17;100.00
5883;BME280;2967;51.488;6.618;2023-02-10T09:07:06;103471.16;;;4.41;100.00
5883;BME280;2967;51.488;6.618;2023-02-10T09:12:10;103476.38;;;4.43;100.00
5883;BME280;2967;51.488;6.618;2023-02-10T09:17:12;103471.97;;;4.28;100.00
5883;BME280;2967;51.488;6.618;2023-02-10T09:22:16;103483.38;;;4.45;100.00
5883;BME280;2967;51.488;6.618;2023-02-10T09:27:19;103500.06;;;4.70;100.00
5883;BME280;2967;51.488;6.618;2023-02-10T09:32:22;103507.09;;;4.92;100.00
5883;BME280;2967;51.488;6.618;2023-02-10T09:37:26;103491.38;;;5.14;100.00
5883;BME280;2967;51.488;6.618;2023-02-10T09:42:39;103460.75;;;4.98;100.00
5883;BME280;2967;51.488;6.618;2023-02-10T09:47:48;103467.66;;;4.48;100.00
5883;BME280;2967;51.488;6.618;2023-02-10T09:53:01;103462.41;;;4.44;100.00
5883;BME280;2967;51.488;6.618;2023-02-10T09:58:15;103466.81;;;4.58;100.00
5883;BME280;2967;51.488;6.618;2023-02-10T10:03:21;103472.97;;;4.90;100.00
5883;BME280;2967;51.488;6.618;2023-02-10T10:08:34;103468.56;;;4.58;100.00
5883;BME280;2967;51.488;6.618;2023-02-10T10:13:40;103470.38;;;5.14;100.00
5883;BME280;2967;51.488;6.618;2023-02-10T10:18:50;103469.50;;;5.15;100.00
5883;BME280;2967;51.488;6.618;2023-02-10T10:24:04;103478.22;;;5.41;100.00
5883;BME280;2967;51.488;6.618;2023-02-10T10:29:20;103459.00;;;5.45;100.00
5883;BME280;2967;51.488;6.618;2023-02-10T10:34:27;103476.44;;;5.83;100.00
5883;BME280;2967;51.488;6.618;2023-02-10T10:39:35;103485.16;;;5.94;100.00
5883;BME280;2967;51.488;6.618;2023-02-10T10:44:41;103488.63;;;6.10;100.00
5883;BME280;2967;51.488;6.618;2023-02-10T10:49:44;103491.19;;;6.29;100.00
5883;BME280;2967;51.488;6.618;2023-02-10T10:54:48;103495.56;;;6.26;100.00
5883;BME280;2967;51.488;6.618;2023-02-10T10:59:54;103477.88;;;6.59;100.00
5883;BME280;2967;51.488;6.618;2023-02-10T11:05:00;103470.88;;;6.55;100.00
5883;BME280;2967;51.488;6.618;2023-02-10T11:10:06;103472.63;;;6.56;100.00
5883;BME280;2967;51.488;6.618;2023-02-10T11:15:32;103470.00;;;6.59;100.00
5883;BME280;2967;51.488;6.618;2023-02-10T11:20:36;103459.44;;;6.62;100.00
5883;BME280;2967;51.488;6.618;2023-02-10T11:25:41;103448.81;;;6.79;100.00
5883;BME280;2967;51.488;6.618;2023-02-10T11:30:46;103435.72;;;6.71;100.00
5883;BME280;2967;51.488;6.618;2023-02-10T11:35:52;103427.03;;;6.62;100.00
5883;BME280;2967;51.488;6.618;2023-02-10T11:41:01;103434.66;;;6.93;100.00
5883;BME280;2967;51.488;6.618;2023-02-10T11:46:07;103436.31;;;7.09;100.00
5883;BME280;2967;51.488;6.618;2023-02-10T11:51:19;103435.28;;;7.22;100.00
5883;BME280;2967;51.488;6.618;2023-02-10T11:56:26;103423.03;;;7.20;100.00
5883;BME280;2967;51.488;6.618;2023-02-10T12:01:56;103407.00;;;7.42;100.00
5883;BME280;2967;51.488;6.618;2023-02-10T12:07:02;103399.66;;;7.71;100.00
5883;BME280;2967;51.488;6.618;2023-02-10T12:12:17;103384.44;;;7.94;100.00
5883;BME280;2967;51.488;6.618;2023-02-10T12:17:26;103384.28;;;8.06;100.00
5883;BME280;2967;51.488;6.618;2023-02-10T12:22:40;103363.13;;;8.12;100.00
5883;BME280;2967;51.488;6.618;2023-02-10T12:27:57;103363.44;;;8.51;100.00
5883;BME280;2967;51.488;6.618;2023-02-10T12:33:14;103361.53;;;8.62;100.00
5883;BME280;2967;51.488;6.618;2023-02-10T12:38:37;103358.84;;;8.64;100.00
5883;BME280;2967;51.488;6.618;2023-02-10T12:43:59;103343.97;;;8.60;99.08
5883;BME280;2967;51.488;6.618;2023-02-10T12:49:14;103356.19;;;8.65;100.00
5883;BME280;2967;51.488;6.618;2023-02-10T12:54:25;103346.25;;;8.81;99.61
5883;BME280;2967;51.488;6.618;2023-02-10T12:59:51;103351.91;;;9.10;99.06
5883;BME280;2967;51.488;6.618;2023-02-10T13:05:01;103353.94;;;8.93;96.13
5883;BME280;2967;51.488;6.618;2023-02-10T13:10:18;103343.34;;;8.96;96.07
5883;BME280;2967;51.488;6.618;2023-02-10T13:15:29;103312.16;;;8.67;94.85
5883;BME280;2967;51.488;6.618;2023-02-10T13:20:40;103330.13;;;8.96;96.04
5883;BME280;2967;51.488;6.618;2023-02-10T13:25:56;103322.50;;;8.81;94.35
5883;BME280;2967;51.488;6.618;2023-02-10T13:31:21;103313.97;;;9.14;93.59
5883;BME280;2967;51.488;6.618;2023-02-10T13:36:28;103275.56;;;8.96;91.95
5883;BME280;2967;51.488;6.618;2023-02-10T13:41:34;103306.41;;;9.40;92.39
5883;BME280;2967;51.488;6.618;2023-02-10T13:46:55;103302.63;;;9.53;91.42
5883;BME280;2967;51.488;6.618;2023-02-10T13:52:04;103292.75;;;9.62;91.97
5883;BME280;2967;51.488;6.618;2023-02-10T13:57:22;103289.22;;;9.62;92.58
5883;BME280;2967;51.488;6.618;2023-02-10T14:02:28;103296.03;;;9.72;93.25
5883;BME280;2967;51.488;6.618;2023-02-10T14:07:34;103303.44;;;9.55;94.61
5883;BME280;2967;51.488;6.618;2023-02-10T14:12:39;103289.97;;;9.67;95.07
5883;BME280;2967;51.488;6.618;2023-02-10T14:17:52;103307.63;;;9.65;95.38
5883;BME280;2967;51.488;6.618;2023-02-10T14:23:00;103295.53;;;9.55;95.90
5883;BME280;2967;51.488;6.618;2023-02-10T14:28:04;103293.28;;;9.35;97.29
5883;BME280;2967;51.488;6.618;2023-02-10T14:33:19;103287.31;;;9.26;98.57
5883;BME280;2967;51.488;6.618;2023-02-10T14:38:24;103274.19;;;9.21;99.23
5883;BME280;2967;51.488;6.618;2023-02-10T14:43:29;103281.75;;;9.39;97.75
5883;BME280;2967;51.488;6.618;2023-02-10T14:48:35;103281.91;;;9.32;98.24
5883;BME280;2967;51.488;6.618;2023-02-10T14:53:38;103288.34;;;9.19;98.64
5883;BME280;2967;51.488;6.618;2023-02-10T14:58:42;103284.06;;;9.12;98.94
5883;BME280;2967;51.488;6.618;2023-02-10T15:03:48;103268.78;;;9.29;99.30
5883;BME280;2967;51.488;6.618;2023-02-10T15:08:54;103265.41;;;9.22;99.47
5883;BME280;2967;51.488;6.618;2023-02-10T15:13:58;103287.31;;;9.26;99.13
5883;BME280;2967;51.488;6.618;2023-02-10T15:19:03;103280.63;;;9.07;99.34
5883;BME280;2967;51.488;6.618;2023-02-10T15:24:18;103266.75;;;8.97;99.27
5883;BME280;2967;51.488;6.618;2023-02-10T15:29:21;103279.03;;;9.00;100.00
5883;BME280;2967;51.488;6.618;2023-02-10T15:34:27;103273.78;;;8.98;100.00
5883;BME280;2967;51.488;6.618;2023-02-10T15:39:32;103257.38;;;8.81;99.04
5883;BME280;2967;51.488;6.618;2023-02-10T15:44:37;103235.81;;;8.58;98.72
5883;BME280;2967;51.488;6.618;2023-02-10T15:49:42;103244.53;;;8.63;100.00
5883;BME280;2967;51.488;6.618;2023-02-10T15:54:45;103244.69;;;8.53;99.82
5883;BME280;2967;51.488;6.618;2023-02-10T15:59:48;103246.50;;;8.51;100.00
5883;BME280;2967;51.488;6.618;2023-02-10T16:04:54;103233.22;;;8.57;100.00
5883;BME280;2967;51.488;6.618;2023-02-10T16:09:57;103232.50;;;8.46;100.00
5883;BME280;2967;51.488;6.618;2023-02-10T16:15:00;103238.75;;;8.40;100.00
5883;BME280;2967;51.488;6.618;2023-02-10T16:20:05;103231.78;;;8.38;100.00
5883;BME280;2967;51.488;6.618;2023-02-10T16:25:08;103241.53;;;8.33;100.00
5883;BME280;2967;51.488;6.618;2023-02-10T16:30:14;103234.59;;;8.26;100.00
5883;BME280;2967;51.488;6.618;2023-02-10T16:35:19;103237.31;;;8.21;100.00
5883;BME280;2967;51.488;6.618;2023-02-10T16:40:24;103248.91;;;8.10;100.00
5883;BME280;2967;51.488;6.618;2023-02-10T16:45:29;103253.50;;;7.97;100.00
5883;BME280;2967;51.488;6.618;2023-02-10T16:50:36;103159.72;;;7.27;100.00
5883;BME280;2967;51.488;6.618;2023-02-10T16:55:39;103249.38;;;7.80;100.00
5883;BME280;2967;51.488;6.618;2023-02-10T17:00:43;103263.63;;;7.67;100.00
5883;BME280;2967;51.488;6.618;2023-02-10T17:05:48;103259.09;;;7.76;100.00
5883;BME280;2967;51.488;6.618;2023-02-10T17:10:52;103249.25;;;7.89;100.00
5883;BME280;2967;51.488;6.618;2023-02-10T17:15:54;103244.88;;;7.88;100.00
5883;BME280;2967;51.488;6.618;2023-02-10T17:20:59;103269.31;;;7.99;100.00
5883;BME280;2967;51.488;6.618;2023-02-10T17:26:01;103268.72;;;7.76;100.00
5883;BME280;2967;51.488;6.618;2023-02-10T17:31:05;103263.31;;;7.86;100.00
5883;BME280;2967;51.488;6.618;2023-02-10T17:36:10;103258.25;;;7.73;100.00
5883;BME280;2967;51.488;6.618;2023-02-10T17:41:13;103281.84;;;7.80;100.00
5883;BME280;2967;51.488;6.618;2023-02-10T17:46:17;103268.72;;;7.79;100.00
5883;BME280;2967;51.488;6.618;2023-02-10T17:51:23;103223.41;;;7.53;100.00
5883;BME280;2967;51.488;6.618;2023-02-10T17:56:26;103270.53;;;7.74;100.00
5883;BME280;2967;51.488;6.618;2023-02-10T18:01:31;103255.75;;;7.64;100.00
5883;BME280;2967;51.488;6.618;2023-02-10T18:06:42;103235.44;;;7.70;100.00
5883;BME280;2967;51.488;6.618;2023-02-10T18:11:45;103232.03;;;7.64;100.00
5883;BME280;2967;51.488;6.618;2023-02-10T18:16:49;103218.13;;;7.53;100.00
5883;BME280;2967;51.488;6.618;2023-02-10T18:21:54;103210.19;;;7.58;100.00
5883;BME280;2967;51.488;6.618;2023-02-10T18:26:58;103206.56;;;7.65;100.00
5883;BME280;2967;51.488;6.618;2023-02-10T18:32:03;103213.66;;;7.61;100.00
5883;BME280;2967;51.488;6.618;2023-02-10T18:37:08;103220.47;;;7.75;100.00
5883;BME280;2967;51.488;6.618;2023-02-10T18:42:12;103222.34;;;7.66;100.00
5883;BME280;2967;51.488;6.618;2023-02-10T18:47:16;103222.25;;;7.73;100.00
5883;BME280;2967;51.488;6.618;2023-02-10T18:52:21;103223.03;;;7.80;100.00
5883;BME280;2967;51.488;6.618;2023-02-10T18:57:24;103221.34;;;7.74;100.00
5883;BME280;2967;51.488;6.618;2023-02-10T19:02:29;103208.31;;;7.64;100.00
5883;BME280;2967;51.488;6.618;2023-02-10T19:07:36;103209.22;;;7.63;100.00
5883;BME280;2967;51.488;6.618;2023-02-10T19:12:39;103181.13;;;7.62;100.00
5883;BME280;2967;51.488;6.618;2023-02-10T19:17:43;103164.56;;;7.54;100.00
5883;BME280;2967;51.488;6.618;2023-02-10T19:22:48;103198.03;;;7.46;100.00
5883;BME280;2967;51.488;6.618;2023-02-10T19:27:52;103198.09;;;7.45;100.00
5883;BME280;2967;51.488;6.618;2023-02-10T19:32:56;103200.47;;;7.60;100.00
5883;BME280;2967;51.488;6.618;2023-02-10T19:38:01;103199.72;;;7.53;100.00
5883;BME280;2967;51.488;6.618;2023-02-10T19:49:59;103223.56;;;7.41;100.00
5883;BME280;2967;51.488;6.618;2023-02-10T19:55:04;103227.72;;;7.59;100.00
5883;BME280;2967;51.488;6.618;2023-02-10T20:00:09;103234.00;;;7.50;100.00
5883;BME280;2967;51.488;6.618;2023-02-10T20:05:12;103228.63;;;7.58;100.00
5883;BME280;2967;51.488;6.618;2023-02-10T20:10:17;103238.97;;;7.72;100.00
5883;BME280;2967;51.488;6.618;2023-02-10T20:15:21;103240.75;;;7.68;100.00
5883;BME280;2967;51.488;6.618;2023-02-10T20:20:24;103249.63;;;7.62;100.00
5883;BME280;2967;51.488;6.618;2023-02-10T20:25:29;103244.34;;;7.62;100.00
5883;BME280;2967;51.488;6.618;2023-02-10T20:30:33;103247.00;;;7.62;100.00
5883;BME280;2967;51.488;6.618;2023-02-10T20:35:37;103242.78;;;7.49;100.00
5883;BME280;2967;51.488;6.618;2023-02-10T20:40:42;103232.19;;;7.54;100.00
5883;BME280;2967;51.488;6.618;2023-02-10T20:45:47;103232.97;;;7.60;100.00
5883;BME280;2967;51.488;6.618;2023-02-10T20:50:51;103231.41;;;7.46;100.00
5883;BME280;2967;51.488;6.618;2023-02-10T20:55:56;103228.56;;;7.62;100.00
5883;BME280;2967;51.488;6.618;2023-02-10T21:01:00;103230.22;;;7.69;100.00
5883;BME280;2967;51.488;6.618;2023-02-10T21:06:07;103235.34;;;7.78;100.00
5883;BME280;2967;51.488;6.618;2023-02-10T21:11:14;103232.88;;;7.66;100.00
5883;BME280;2967;51.488;6.618;2023-02-10T21:16:18;103220.50;;;7.72;100.00
5883;BME280;2967;51.488;6.618;2023-02-10T21:21:22;103206.69;;;7.56;100.00
5883;BME280;2967;51.488;6.618;2023-02-10T21:26:26;103207.47;;;7.62;100.00
5883;BME280;2967;51.488;6.618;2023-02-10T21:31:29;103192.25;;;7.80;100.00
5883;BME280;2967;51.488;6.618;2023-02-10T21:36:35;103185.25;;;7.81;100.00
5883;BME280;2967;51.488;6.618;2023-02-10T21:41:39;103140.84;;;7.57;100.00
5883;BME280;2967;51.488;6.618;2023-02-10T21:46:45;103202.84;;;7.77;100.00
5883;BME280;2967;51.488;6.618;2023-02-10T21:51:49;103205.44;;;7.80;100.00
5883;BME280;2967;51.488;6.618;2023-02-10T21:56:55;103207.38;;;8.25;100.00
5883;BME280;2967;51.488;6.618;2023-02-10T22:01:59;103213.97;;;7.96;100.00
5883;BME280;2967;51.488;6.618;2023-02-10T22:07:04;103216.50;;;8.03;100.00
5883;BME280;2967;51.488;6.618;2023-02-10T22:12:08;103208.38;;;7.60;100.00
5883;BME280;2967;51.488;6.618;2023-02-10T22:17:11;103216.22;;;7.67;100.00
5883;BME280;2967;51.488;6.618;2023-02-10T22:22:14;103215.25;;;7.69;100.00
5883;BME280;2967;51.488;6.618;2023-02-10T22:27:18;103227.84;;;7.51;100.00
5883;BME280;2967;51.488;6.618;2023-02-10T22:32:20;103179.72;;;7.39;100.00
5883;BME280;2967;51.488;6.618;2023-02-10T22:37:26;103209.22;;;7.63;100.00
5883;BME280;2967;51.488;6.618;2023-02-10T22:42:30;103221.53;;;7.63;100.00
5883;BME280;2967;51.488;6.618;2023-02-10T22:47:33;103121.38;;;7.08;100.00
5883;BME280;2967;51.488;6.618;2023-02-10T22:52:36;103220.03;;;7.44;100.00
5883;BME280;2967;51.488;6.618;2023-02-10T22:57:40;103214.44;;;7.66;100.00
5883;BME280;2967;51.488;6.618;2023-02-10T23:02:43;103220.56;;;7.68;100.00
5883;BME280;2967;51.488;6.618;2023-02-10T23:07:46;103223.22;;;7.67;100.00
5883;BME280;2967;51.488;6.618;2023-02-10T23:12:50;103210.13;;;7.61;100.00
5883;BME280;2967;51.488;6.618;2023-02-10T23:17:52;103207.03;;;7.90;100.00
5883;BME280;2967;51.488;6.618;2023-02-10T23:22:55;103150.34;;;7.66;100.00
5883;BME280;2967;51.488;6.618;2023-02-10T23:27:59;103191.28;;;7.89;100.00
5883;BME280;2967;51.488;6.618;2023-02-10T23:33:02;103184.28;;;7.85;100.00
5883;BME280;2967;51.488;6.618;2023-02-10T23:38:09;103176.22;;;7.97;100.00
5883;BME280;2967;51.488;6.618;2023-02-10T23:43:13;103179.63;;;8.03;100.00
5883;BME280;2967;51.488;6.618;2023-02-10T23:48:16;103176.16;;;8.00;100.00
5883;BME280;2967;51.488;6.618;2023-02-10T23:53:18;103163.81;;;8.02;100.00
5883;BME280;2967;51.488;6.618;2023-02-10T23:58:22;103171.44;;;8.20;100.00
